Time;durP1;ratioP1;P1;durP2;ratioP2;P2;SDS_P1;SDS_P2;PMS_P1;PMS_P2;Temp;Humidity;BMP_temperature;BMP_pressure;BME280_temperature;BME280_humidity;BME280_pressure;Samples;Min_cycle;Max_cycle;Signal;HPM_P1;HPM_P2
2021/09/05 00:01:56;;;;;;;15.60;12.13;;;22.10;70.00;;;;;;4986618;28;20038;-74
2021/09/05 00:04:22;;;;;;;16.55;13.30;;;22.10;70.00;;;;;;4989265;28;20022;-74
2021/09/05 00:06:47;;;;;;;18.10;13.00;;;22.10;69.80;;;;;;4972955;28;20113;-74
2021/09/05 00:09:13;;;;;;;16.90;13.63;;;22.10;70.00;;;;;;4988216;28;20030;-74
2021/09/05 00:11:39;;;;;;;17.08;12.50;;;22.10;70.20;;;;;;4970911;28;20089;-74
2021/09/05 00:14:04;;;;;;;18.40;13.70;;;22.10;70.20;;;;;;4986457;28;20104;-74
2021/09/05 00:16:30;;;;;;;16.77;12.93;;;22.00;70.20;;;;;;4984115;28;20464;-75
2021/09/05 00:18:57;;;;;;;16.35;13.40;;;22.00;71.10;;;;;;4993636;28;20030;-74
2021/09/05 00:21:23;;;;;;;15.30;12.20;;;21.90;70.40;;;;;;4990863;28;20096;-74
2021/09/05 00:23:49;;;;;;;15.43;12.63;;;22.00;70.30;;;;;;4991116;28;20058;-74
2021/09/05 00:26:15;;;;;;;17.30;12.95;;;21.90;70.70;;;;;;4991394;28;20037;-74
2021/09/05 00:28:40;;;;;;;17.23;12.65;;;21.90;70.80;;;;;;4993232;28;20030;-74
2021/09/05 00:31:06;;;;;;;17.05;13.10;;;21.90;70.70;;;;;;4991643;28;20051;-74
2021/09/05 00:33:32;;;;;;;15.65;12.38;;;21.90;70.80;;;;;;4976816;28;20097;-74
2021/09/05 00:35:57;;;;;;;17.02;13.20;;;21.90;71.10;;;;;;4992332;28;20033;-74
2021/09/05 00:38:23;;;;;;;15.43;12.57;;;21.90;70.80;;;;;;4991414;28;20545;-73
2021/09/05 00:40:49;;;;;;;16.45;12.60;;;21.90;70.50;;;;;;4992814;28;20038;-74
2021/09/05 00:43:15;;;;;;;16.45;12.63;;;21.80;71.00;;;;;;4993299;28;20483;-73
2021/09/05 00:45:40;;;;;;;15.07;12.20;;;21.80;71.00;;;;;;4990952;28;20065;-73
2021/09/05 00:48:06;;;;;;;18.13;13.55;;;21.70;71.00;;;;;;4990869;28;20075;-74
2021/09/05 00:50:32;;;;;;;17.73;13.05;;;21.80;71.70;;;;;;4990261;28;20038;-74
2021/09/05 00:52:58;;;;;;;15.75;12.75;;;21.80;71.30;;;;;;4991275;28;20042;-73
2021/09/05 00:55:25;;;;;;;14.65;11.70;;;21.70;71.00;;;;;;4993753;28;20049;-74
2021/09/05 00:57:51;;;;;;;15.57;12.68;;;21.80;71.70;;;;;;4989405;28;20097;-73
2021/09/05 01:00:19;;;;;;;18.27;13.20;;;21.80;71.40;;;;;;4974855;28;20044;-73
2021/09/05 01:02:47;;;;;;;14.35;12.10;;;21.80;71.40;;;;;;4986444;28;20537;-73
2021/09/05 01:05:13;;;;;;;16.20;13.38;;;21.70;71.40;;;;;;4991444;28;20034;-73
2021/09/05 01:07:39;;;;;;;16.70;13.27;;;21.70;71.40;;;;;;4992412;28;20026;-73
2021/09/05 01:10:06;;;;;;;16.77;12.77;;;21.60;71.60;;;;;;4991314;28;20019;-74
2021/09/05 01:12:31;;;;;;;17.05;11.90;;;21.70;71.80;;;;;;4989041;28;20037;-73
2021/09/05 01:14:57;;;;;;;17.05;13.48;;;21.70;72.00;;;;;;4991804;28;20643;-74
2021/09/05 01:17:23;;;;;;;17.85;13.13;;;21.70;71.80;;;;;;4990303;28;20510;-74
2021/09/05 01:19:49;;;;;;;17.30;12.65;;;21.70;71.70;;;;;;4992089;28;20523;-73
2021/09/05 01:22:15;;;;;;;17.45;13.15;;;21.60;71.70;;;;;;4973870;28;20117;-74
2021/09/05 01:24:41;;;;;;;18.10;12.95;;;21.70;71.80;;;;;;4988041;28;20026;-73
2021/09/05 01:27:07;;;;;;;17.60;13.70;;;21.60;71.90;;;;;;4986519;28;20022;-72
2021/09/05 01:29:32;;;;;;;16.70;13.27;;;21.60;71.70;;;;;;4989279;28;20054;-73
2021/09/05 01:31:59;;;;;;;18.77;13.07;;;21.50;72.30;;;;;;4990078;28;20085;-74
2021/09/05 01:34:25;;;;;;;17.42;13.05;;;21.50;72.00;;;;;;4992788;28;20023;-72
2021/09/05 01:36:53;;;;;;;18.90;14.00;;;21.60;72.40;;;;;;4990102;28;20391;-73
2021/09/05 01:39:21;;;;;;;18.60;13.48;;;21.50;72.20;;;;;;4974592;28;20451;-73
2021/09/05 01:41:47;;;;;;;18.88;13.55;;;21.40;72.20;;;;;;4988381;28;20093;-74
2021/09/05 01:44:19;;;;;;;16.42;12.75;;;21.40;72.50;;;;;;4990105;28;20149;-74
2021/09/05 01:46:44;;;;;;;18.08;13.57;;;21.30;72.30;;;;;;4992220;28;20109;-74
2021/09/05 01:49:10;;;;;;;18.65;12.63;;;21.30;72.40;;;;;;4992782;28;20162;-74
2021/09/05 01:51:36;;;;;;;16.73;12.85;;;21.30;72.40;;;;;;4991246;28;20479;-74
2021/09/05 01:54:02;;;;;;;17.65;13.32;;;21.30;72.70;;;;;;4989914;28;20038;-74
2021/09/05 01:56:29;;;;;;;16.35;13.48;;;21.30;72.40;;;;;;4984728;28;20029;-74
2021/09/05 01:58:56;;;;;;;17.10;12.55;;;21.30;72.70;;;;;;4990584;28;20058;-74
2021/09/05 02:01:23;;;;;;;18.38;12.93;;;21.20;72.50;;;;;;4991606;28;20125;-74
2021/09/05 02:03:48;;;;;;;19.15;12.95;;;21.20;72.90;;;;;;4989373;28;20026;-72
2021/09/05 02:06:14;;;;;;;18.10;13.02;;;21.20;72.70;;;;;;4989537;28;20398;-72
2021/09/05 02:08:40;;;;;;;16.98;12.88;;;21.20;72.80;;;;;;4991813;28;20057;-71
2021/09/05 02:11:05;;;;;;;17.00;13.00;;;21.20;72.80;;;;;;4990588;28;20105;-73
2021/09/05 02:13:32;;;;;;;16.65;13.48;;;21.10;72.80;;;;;;4992863;28;20030;-73
2021/09/05 02:15:58;;;;;;;16.90;12.68;;;21.10;72.90;;;;;;4975378;28;20036;-72
2021/09/05 02:18:23;;;;;;;19.35;14.00;;;21.10;73.20;;;;;;4989988;28;20027;-73
2021/09/05 02:20:49;;;;;;;17.17;13.75;;;21.10;73.40;;;;;;4989505;28;20042;-73
2021/09/05 02:23:15;;;;;;;18.33;13.65;;;21.00;73.20;;;;;;4988949;28;20435;-73
2021/09/05 02:25:40;;;;;;;18.17;13.77;;;21.00;73.40;;;;;;4991603;28;20038;-73
2021/09/05 02:28:06;;;;;;;16.58;12.85;;;21.00;74.40;;;;;;4990619;28;20030;-74
2021/09/05 02:30:34;;;;;;;14.95;12.20;;;21.00;73.20;;;;;;4989592;28;20078;-73
2021/09/05 02:33:01;;;;;;;15.90;12.48;;;21.00;73.20;;;;;;4988661;28;20026;-73
2021/09/05 02:35:27;;;;;;;20.58;13.40;;;20.90;73.60;;;;;;4991061;28;20037;-73
2021/09/05 02:37:52;;;;;;;16.50;12.93;;;20.90;73.80;;;;;;4990229;28;20038;-73
2021/09/05 02:40:18;;;;;;;16.02;12.88;;;20.90;74.00;;;;;;4988946;28;20730;-73
2021/09/05 02:42:44;;;;;;;18.40;13.65;;;20.90;74.00;;;;;;4997488;28;20105;-73
2021/09/05 02:45:10;;;;;;;16.50;13.45;;;20.80;74.10;;;;;;4990935;28;20031;-73
2021/09/05 02:47:36;;;;;;;17.23;12.90;;;20.80;74.10;;;;;;4989230;28;20493;-74
2021/09/05 02:50:02;;;;;;;16.08;12.63;;;20.80;73.80;;;;;;4988686;28;20058;-74
2021/09/05 02:52:28;;;;;;;17.10;12.73;;;20.80;74.00;;;;;;4992180;28;20030;-74
2021/09/05 02:54:54;;;;;;;17.63;12.85;;;20.80;73.80;;;;;;4988896;28;20410;-74
2021/09/05 02:57:19;;;;;;;15.45;12.30;;;20.70;73.80;;;;;;4989021;28;20505;-71
2021/09/05 02:59:45;;;;;;;17.15;13.38;;;20.70;74.00;;;;;;4988960;28;20510;-73
2021/09/05 03:02:11;;;;;;;16.73;12.90;;;20.70;73.90;;;;;;4989523;28;20615;-73
2021/09/05 03:04:36;;;;;;;15.73;12.10;;;20.70;74.10;;;;;;4991222;28;20106;-73
2021/09/05 03:07:02;;;;;;;15.63;12.20;;;20.70;74.00;;;;;;4990128;28;20225;-72
2021/09/05 03:09:27;;;;;;;16.30;12.45;;;20.70;74.30;;;;;;4988561;28;20073;-73
2021/09/05 03:11:53;;;;;;;17.40;12.77;;;20.70;74.50;;;;;;4988570;28;20395;-73
2021/09/05 03:14:19;;;;;;;18.20;13.35;;;20.70;74.60;;;;;;4989006;28;20027;-73
2021/09/05 03:16:45;;;;;;;16.80;12.18;;;20.70;74.60;;;;;;4973671;28;20030;-73
2021/09/05 03:19:11;;;;;;;16.88;12.98;;;20.70;74.40;;;;;;4989511;28;20498;-73
2021/09/05 03:21:38;;;;;;;17.33;13.30;;;20.70;74.30;;;;;;4988682;28;20080;-73
2021/09/05 03:24:04;;;;;;;15.80;12.60;;;20.60;74.20;;;;;;4970617;28;20081;-74
2021/09/05 03:26:31;;;;;;;16.23;12.52;;;20.60;74.30;;;;;;4992516;28;20064;-74
2021/09/05 03:28:57;;;;;;;16.77;13.18;;;20.60;74.30;;;;;;4976255;28;20031;-73
2021/09/05 03:31:22;;;;;;;15.13;12.55;;;20.60;74.60;;;;;;4994878;28;20516;-73
2021/09/05 03:33:48;;;;;;;16.98;12.02;;;20.50;74.50;;;;;;4992151;28;20041;-73
2021/09/05 03:36:13;;;;;;;17.98;13.10;;;20.50;74.50;;;;;;4978087;28;20394;-74
2021/09/05 03:38:39;;;;;;;18.08;13.02;;;20.50;74.50;;;;;;4991770;28;20031;-73
2021/09/05 03:41:05;;;;;;;16.20;12.90;;;20.50;74.70;;;;;;4991533;28;20034;-73
2021/09/05 03:43:30;;;;;;;15.60;11.82;;;20.50;74.70;;;;;;4977406;28;20026;-73
2021/09/05 03:45:56;;;;;;;19.48;12.65;;;20.50;74.50;;;;;;4992367;28;20479;-73
2021/09/05 03:48:21;;;;;;;17.08;13.00;;;20.50;74.50;;;;;;4992030;28;20081;-73
2021/09/05 03:50:47;;;;;;;18.05;13.43;;;20.50;74.60;;;;;;4991496;28;20045;-73
2021/09/05 03:53:13;;;;;;;16.65;12.30;;;20.40;74.50;;;;;;4991569;28;20443;-73
2021/09/05 03:55:38;;;;;;;15.07;11.88;;;20.40;74.70;;;;;;4977163;28;20035;-73
2021/09/05 03:58:06;;;;;;;18.00;12.90;;;20.40;75.10;;;;;;4992520;28;20026;-74
2021/09/05 04:00:32;;;;;;;16.23;12.00;;;20.40;75.00;;;;;;4975608;28;20054;-73
2021/09/05 04:02:58;;;;;;;17.73;13.65;;;20.40;75.20;;;;;;4972104;28;20513;-73
2021/09/05 04:05:24;;;;;;;17.08;12.95;;;20.40;75.10;;;;;;4991408;28;20030;-73
2021/09/05 04:08:14;;;;;;;15.93;12.23;;;20.40;75.20;;;;;;4992373;28;20031;-73
2021/09/05 04:10:40;;;;;;;15.98;12.38;;;20.30;74.90;;;;;;4973018;28;20550;-73
2021/09/05 04:13:09;;;;;;;16.45;12.10;;;20.30;74.70;;;;;;4991883;28;20101;-73
2021/09/05 04:15:35;;;;;;;15.88;12.13;;;20.30;75.00;;;;;;4991249;28;20053;-73
2021/09/05 04:18:00;;;;;;;16.30;11.75;;;20.30;75.20;;;;;;4991194;28;20069;-73
2021/09/05 04:20:26;;;;;;;15.10;12.07;;;20.30;75.20;;;;;;4975379;28;20414;-73
2021/09/05 04:22:51;;;;;;;15.57;12.00;;;20.20;75.20;;;;;;4991785;28;20478;-73
2021/09/05 04:25:18;;;;;;;15.85;11.77;;;20.20;75.50;;;;;;4992782;28;20022;-73
2021/09/05 04:27:44;;;;;;;14.50;10.93;;;20.20;75.50;;;;;;4975577;28;20463;-73
2021/09/05 04:30:11;;;;;;;15.77;11.30;;;20.10;75.10;;;;;;4990733;28;20034;-74
2021/09/05 04:32:37;;;;;;;17.60;12.50;;;20.10;75.10;;;;;;4991902;28;20047;-74
2021/09/05 04:35:04;;;;;;;15.52;11.27;;;20.10;75.70;;;;;;4990209;28;20061;-73
2021/09/05 04:37:30;;;;;;;13.63;10.32;;;20.10;75.60;;;;;;4993301;28;20101;-74
2021/09/05 04:39:56;;;;;;;14.93;11.18;;;20.20;75.70;;;;;;4991100;28;20037;-73
2021/09/05 04:42:22;;;;;;;15.82;11.50;;;20.20;75.60;;;;;;4990617;28;20042;-73
2021/09/05 04:44:48;;;;;;;17.40;12.48;;;20.20;76.20;;;;;;4990272;28;20049;-74
2021/09/05 04:47:14;;;;;;;15.93;11.90;;;20.20;75.30;;;;;;4990912;28;20506;-73
2021/09/05 04:49:39;;;;;;;15.85;11.73;;;20.10;75.20;;;;;;4992140;28;20114;-73
2021/09/05 04:52:06;;;;;;;16.25;11.45;;;20.10;75.40;;;;;;4991267;28;20066;-73
2021/09/05 04:54:33;;;;;;;13.45;11.07;;;20.00;75.40;;;;;;4990253;28;20109;-73
2021/09/05 04:56:58;;;;;;;14.82;11.75;;;19.90;75.60;;;;;;4990196;28;20550;-73
2021/09/05 04:59:24;;;;;;;15.85;11.85;;;19.80;75.60;;;;;;4990298;28;20105;-73
2021/09/05 05:01:50;;;;;;;14.77;11.38;;;19.80;75.90;;;;;;4974515;28;20053;-73
2021/09/05 05:04:15;;;;;;;14.93;11.18;;;19.80;76.20;;;;;;4993287;28;20113;-73
2021/09/05 05:06:42;;;;;;;13.55;10.43;;;19.70;76.10;;;;;;4989936;28;20125;-73
2021/09/05 05:09:09;;;;;;;15.30;11.10;;;19.70;76.00;;;;;;4989540;28;20506;-73
2021/09/05 05:11:34;;;;;;;14.52;10.27;;;19.70;76.30;;;;;;4992105;28;20035;-73
2021/09/05 05:14:00;;;;;;;13.98;11.45;;;19.70;76.40;;;;;;4990242;28;20026;-73
2021/09/05 05:16:26;;;;;;;13.35;11.10;;;19.60;76.10;;;;;;4993015;28;20031;-73
2021/09/05 05:18:51;;;;;;;14.40;10.35;;;19.60;77.10;;;;;;4989319;28;20042;-74
2021/09/05 05:21:17;;;;;;;13.65;11.13;;;19.50;76.30;;;;;;4993740;28;20046;-73
2021/09/05 05:23:43;;;;;;;13.18;10.15;;;19.60;76.20;;;;;;4989637;28;20033;-72
2021/09/05 05:26:08;;;;;;;12.98;10.45;;;19.60;76.40;;;;;;4990201;28;20495;-73
2021/09/05 05:28:34;;;;;;;14.55;10.73;;;19.60;76.30;;;;;;4992322;28;20494;-73
2021/09/05 05:31:00;;;;;;;13.27;10.30;;;19.60;76.10;;;;;;4991089;28;20054;-73
2021/09/05 05:33:25;;;;;;;14.25;11.15;;;19.60;76.10;;;;;;4989435;28;20061;-73
2021/09/05 05:35:51;;;;;;;14.80;11.35;;;19.60;75.90;;;;;;4989670;28;20101;-73
2021/09/05 05:38:17;;;;;;;14.82;10.68;;;19.50;76.00;;;;;;4989505;28;20023;-73
2021/09/05 05:40:42;;;;;;;12.45;10.18;;;19.40;76.20;;;;;;4991378;28;20049;-73
2021/09/05 05:43:08;;;;;;;14.00;10.13;;;19.50;75.90;;;;;;4990219;28;20088;-73
2021/09/05 05:45:34;;;;;;;13.35;9.55;;;19.40;76.00;;;;;;4989038;28;20038;-73
2021/09/05 05:47:59;;;;;;;12.18;9.48;;;19.50;76.50;;;;;;4988971;28;20029;-73
2021/09/05 05:50:25;;;;;;;12.88;9.57;;;19.50;76.20;;;;;;4989853;28;20057;-73
2021/09/05 05:52:51;;;;;;;12.05;9.43;;;19.40;76.00;;;;;;4990975;28;20038;-74
2021/09/05 05:55:18;;;;;;;12.15;9.63;;;19.40;76.20;;;;;;4991591;28;20486;-74
2021/09/05 05:57:43;;;;;;;11.40;8.85;;;19.50;76.30;;;;;;4988432;28;20054;-73
2021/09/05 06:00:10;;;;;;;11.27;8.88;;;19.50;76.20;;;;;;4989222;28;20038;-74
2021/09/05 06:02:35;;;;;;;12.32;9.05;;;19.40;76.00;;;;;;4988344;28;20026;-73
2021/09/05 06:05:01;;;;;;;11.93;9.55;;;19.50;76.10;;;;;;4989033;28;20030;-72
2021/09/05 06:07:27;;;;;;;10.93;8.48;;;19.50;76.30;;;;;;4992044;28;20022;-73
2021/09/05 06:09:52;;;;;;;11.63;8.93;;;19.50;76.10;;;;;;4988865;28;20133;-73
2021/09/05 06:12:19;;;;;;;11.27;8.68;;;19.50;76.10;;;;;;4988567;28;20023;-74
2021/09/05 06:14:44;;;;;;;13.93;9.25;;;19.40;76.20;;;;;;4989015;28;20057;-74
2021/09/05 06:17:11;;;;;;;11.48;8.45;;;19.50;76.50;;;;;;4988726;28;20023;-74
2021/09/05 06:19:37;;;;;;;13.48;8.85;;;19.60;76.60;;;;;;4990778;28;20037;-74
2021/09/05 06:22:03;;;;;;;14.02;9.35;;;19.60;76.00;;;;;;4989458;28;20426;-74
2021/09/05 06:24:28;;;;;;;12.50;8.75;;;19.60;76.00;;;;;;4989026;28;20026;-74
2021/09/05 06:26:54;;;;;;;11.23;8.65;;;19.60;76.10;;;;;;4988543;28;20297;-74
2021/09/05 06:29:20;;;;;;;12.93;8.95;;;19.70;76.50;;;;;;4989150;28;20637;-73
2021/09/05 06:31:45;;;;;;;10.63;8.88;;;19.70;76.10;;;;;;4990740;28;20542;-73
2021/09/05 06:34:11;;;;;;;9.95;8.00;;;19.70;76.00;;;;;;4989793;28;20030;-74
2021/09/05 06:36:36;;;;;;;10.55;8.32;;;19.70;76.20;;;;;;4990619;28;20569;-73
2021/09/05 06:39:02;;;;;;;11.77;9.00;;;19.70;75.70;;;;;;4991975;28;20068;-73
2021/09/05 06:41:29;;;;;;;10.77;8.18;;;19.60;76.20;;;;;;4983644;28;20038;-74
2021/09/05 06:43:56;;;;;;;12.18;8.98;;;19.70;76.60;;;;;;4989652;28;20029;-74
2021/09/05 06:46:22;;;;;;;14.35;10.20;;;19.70;76.30;;;;;;4990914;28;20546;-73
2021/09/05 06:48:47;;;;;;;12.48;9.30;;;19.70;76.70;;;;;;4988613;28;20027;-74
2021/09/05 06:51:13;;;;;;;13.63;9.70;;;19.70;76.30;;;;;;4987786;28;20406;-73
2021/09/05 06:53:39;;;;;;;11.90;9.35;;;19.70;76.60;;;;;;4988563;28;20026;-73
2021/09/05 06:56:05;;;;;;;10.90;8.57;;;19.70;76.70;;;;;;4988260;28;20516;-74
2021/09/05 06:58:31;;;;;;;12.00;9.48;;;19.80;76.80;;;;;;4995758;28;20029;-73
2021/09/05 07:00:56;;;;;;;11.10;9.38;;;19.90;77.10;;;;;;4976785;28;20045;-73
2021/09/05 07:03:22;;;;;;;12.00;9.57;;;20.00;76.90;;;;;;4992031;28;20100;-73
2021/09/05 07:05:47;;;;;;;12.15;9.43;;;20.00;76.50;;;;;;4992252;28;20030;-73
2021/09/05 07:08:13;;;;;;;9.95;8.02;;;20.00;76.30;;;;;;4992994;28;20027;-73
2021/09/05 07:10:39;;;;;;;11.15;9.10;;;20.10;76.60;;;;;;4994326;28;20037;-73
2021/09/05 07:13:05;;;;;;;10.93;9.10;;;20.20;76.40;;;;;;4992939;28;20022;-73
2021/09/05 07:15:31;;;;;;;11.43;9.07;;;20.30;76.20;;;;;;4974528;28;20026;-73
2021/09/05 07:17:57;;;;;;;11.35;9.00;;;20.50;76.00;;;;;;4977346;28;20101;-73
2021/09/05 07:20:22;;;;;;;10.77;8.52;;;20.60;76.20;;;;;;4991475;28;20109;-73
2021/09/05 07:22:48;;;;;;;12.15;9.85;;;20.70;75.90;;;;;;4993092;28;20042;-73
2021/09/05 07:25:14;;;;;;;10.68;8.43;;;20.90;75.80;;;;;;4994548;28;20038;-73
2021/09/05 07:27:39;;;;;;;10.30;8.68;;;21.00;75.20;;;;;;4994185;28;20022;-75
2021/09/05 07:30:07;;;;;;;10.73;9.10;;;21.20;75.30;;;;;;4992197;28;20467;-74
2021/09/05 07:32:32;;;;;;;12.73;10.15;;;21.50;75.00;;;;;;4993686;28;20046;-72
2021/09/05 07:34:58;;;;;;;10.43;9.32;;;21.70;74.40;;;;;;4976514;28;20023;-73
2021/09/05 07:37:24;;;;;;;11.63;9.57;;;22.00;74.10;;;;;;4994640;28;20557;-73
2021/09/05 07:39:50;;;;;;;12.48;9.82;;;22.20;73.40;;;;;;4991379;28;20472;-72
2021/09/05 07:42:15;;;;;;;11.60;9.48;;;22.50;72.80;;;;;;4993068;28;20394;-74
2021/09/05 07:44:41;;;;;;;11.63;9.20;;;22.70;72.30;;;;;;4976745;28;20034;-73
2021/09/05 07:47:07;;;;;;;13.00;10.38;;;22.90;71.80;;;;;;4992649;28;20164;-72
2021/09/05 07:49:33;;;;;;;11.55;9.88;;;23.00;70.50;;;;;;4994898;28;20026;-72
2021/09/05 07:51:59;;;;;;;11.77;9.68;;;23.10;70.80;;;;;;4991932;28;20092;-73
2021/09/05 07:54:25;;;;;;;13.70;11.30;;;23.20;70.80;;;;;;4988337;28;20487;-73
2021/09/05 07:56:51;;;;;;;11.32;10.05;;;23.30;69.70;;;;;;4983997;28;20499;-73
2021/09/05 07:59:16;;;;;;;11.57;10.10;;;23.40;70.30;;;;;;4990891;28;20543;-73
2021/09/05 08:01:42;;;;;;;12.52;10.18;;;23.60;69.90;;;;;;4992832;28;20089;-73
2021/09/05 08:04:08;;;;;;;12.65;10.30;;;23.80;69.40;;;;;;4989876;28;20018;-73
2021/09/05 08:06:33;;;;;;;12.52;10.93;;;23.90;69.30;;;;;;4990476;28;20035;-73
2021/09/05 08:08:59;;;;;;;11.20;10.00;;;24.10;68.70;;;;;;4975343;28;20026;-72
2021/09/05 08:11:25;;;;;;;12.90;11.20;;;24.40;69.10;;;;;;4990494;28;20049;-73
2021/09/05 08:13:52;;;;;;;12.45;10.48;;;24.60;67.50;;;;;;4991794;28;20743;-72
2021/09/05 08:16:17;;;;;;;12.73;10.35;;;24.70;67.80;;;;;;4975647;28;20034;-73
2021/09/05 08:18:43;;;;;;;11.98;10.50;;;24.90;67.10;;;;;;4992332;28;20073;-73
2021/09/05 08:21:10;;;;;;;12.95;10.48;;;25.00;66.30;;;;;;4993177;28;20498;-72
2021/09/05 08:23:37;;;;;;;11.40;9.90;;;25.20;66.50;;;;;;4992619;28;20019;-73
2021/09/05 08:26:04;;;;;;;12.93;10.48;;;25.50;66.90;;;;;;4991033;28;20041;-72
2021/09/05 08:28:30;;;;;;;13.73;11.15;;;25.80;65.70;;;;;;4994232;28;20030;-72
2021/09/05 08:30:55;;;;;;;12.43;10.15;;;26.00;64.70;;;;;;4990699;28;20058;-72
2021/09/05 08:33:21;;;;;;;13.07;10.25;;;26.10;64.30;;;;;;4992333;28;20023;-73
2021/09/05 08:35:47;;;;;;;13.82;10.43;;;26.10;63.70;;;;;;4994941;28;20510;-73
2021/09/05 08:38:13;;;;;;;12.88;11.10;;;26.30;64.60;;;;;;4992499;28;20026;-73
2021/09/05 08:40:45;;;;;;;12.23;10.18;;;26.40;63.70;;;;;;4993093;28;20050;-73
2021/09/05 08:43:12;;;;;;;13.38;11.10;;;26.40;63.10;;;;;;4991750;28;20084;-73
2021/09/05 08:45:38;;;;;;;12.35;10.25;;;26.20;62.10;;;;;;4992016;28;20034;-74
2021/09/05 08:48:05;;;;;;;11.98;9.65;;;26.20;63.30;;;;;;4991686;28;20329;-73
2021/09/05 08:50:32;;;;;;;14.30;10.45;;;26.40;63.60;;;;;;4992244;28;20026;-73
2021/09/05 08:52:58;;;;;;;11.82;10.20;;;26.50;62.70;;;;;;4992237;28;20030;-73
2021/09/05 08:55:24;;;;;;;11.65;9.93;;;26.70;63.20;;;;;;4993858;28;20081;-73
2021/09/05 08:57:50;;;;;;;12.68;10.75;;;27.10;63.50;;;;;;4990340;28;20527;-73
2021/09/05 09:00:16;;;;;;;16.38;12.20;;;27.10;61.90;;;;;;4991658;28;20073;-73
2021/09/05 09:03:01;;;;;;;13.43;10.80;;;27.10;60.70;;;;;;4988290;28;20018;-73
2021/09/05 09:05:32;;;;;;;11.43;9.90;;;27.20;63.00;;;;;;4967824;28;20018;-74
2021/09/05 09:08:19;;;;;;;11.98;9.60;;;27.60;62.80;;;;;;4985812;28;20038;-76
2021/09/05 09:10:51;;;;;;;11.70;10.13;;;28.00;61.10;;;;;;4985438;28;20434;-76
2021/09/05 09:13:25;;;;;;;12.20;10.90;;;27.90;60.20;;;;;;4986025;28;20065;-74
2021/09/05 09:15:51;;;;;;;12.43;10.50;;;28.10;60.70;;;;;;4985442;28;20015;-76
2021/09/05 09:18:29;;;;;;;14.00;11.25;;;28.10;59.90;;;;;;4984778;28;20029;-75
2021/09/05 09:20:57;;;;;;;13.65;11.02;;;28.10;58.80;;;;;;4984462;28;20038;-75
2021/09/05 09:23:28;;;;;;;14.68;11.05;;;28.00;58.30;;;;;;4966798;28;20038;-75
2021/09/05 09:26:06;;;;;;;13.82;10.65;;;28.10;57.90;;;;;;4981981;28;20034;-76
2021/09/05 09:28:39;;;;;;;12.95;9.90;;;28.10;60.10;;;;;;4986151;28;20030;-75
2021/09/05 09:31:25;;;;;;;12.50;10.35;;;28.40;58.30;;;;;;4987135;28;20046;-75
2021/09/05 09:33:58;;;;;;;11.95;9.70;;;28.50;57.10;;;;;;4971157;28;20057;-74
2021/09/05 09:36:29;;;;;;;10.32;8.98;;;28.70;56.80;;;;;;4987350;28;20031;-75
2021/09/05 09:38:59;;;;;;;11.73;9.23;;;28.90;57.10;;;;;;4983880;28;20030;-75
2021/09/05 09:41:42;;;;;;;10.50;9.40;;;29.10;56.00;;;;;;4987344;28;20035;-75
2021/09/05 09:44:09;;;;;;;9.60;7.75;;;29.10;55.40;;;;;;4982031;28;20034;-75
2021/09/05 09:46:37;;;;;;;9.18;8.25;;;29.40;55.60;;;;;;4986771;28;20129;-74
2021/09/05 09:49:08;;;;;;;9.95;8.95;;;29.80;54.90;;;;;;4982078;28;20027;-74
2021/09/05 09:51:35;;;;;;;8.55;7.75;;;30.00;55.20;;;;;;4984661;28;20421;-75
2021/09/05 09:54:00;;;;;;;8.82;7.93;;;30.30;54.60;;;;;;4966224;28;20501;-77
2021/09/05 09:56:27;;;;;;;9.23;8.02;;;30.60;54.10;;;;;;4983492;28;20038;-76
2021/09/05 09:58:56;;;;;;;8.98;8.07;;;30.70;52.90;;;;;;4984041;28;20026;-77
2021/09/05 10:01:24;;;;;;;9.32;8.25;;;30.80;53.30;;;;;;4986582;28;20049;-76
2021/09/05 10:03:55;;;;;;;13.77;8.45;;;30.90;53.00;;;;;;4988217;28;20040;-75
2021/09/05 10:06:25;;;;;;;8.77;7.60;;;31.10;52.30;;;;;;4990210;28;20029;-76
2021/09/05 10:08:55;;;;;;;8.30;7.45;;;31.30;52.50;;;;;;4968447;28;20022;-75
2021/09/05 10:11:22;;;;;;;8.40;7.43;;;31.40;51.20;;;;;;4981693;28;20030;-75
2021/09/05 10:13:48;;;;;;;8.15;7.35;;;31.50;51.40;;;;;;4963419;28;20019;-76
2021/09/05 10:16:14;;;;;;;9.05;7.28;;;31.70;52.00;;;;;;4982565;28;20030;-76
2021/09/05 10:18:45;;;;;;;8.30;7.18;;;31.70;49.60;;;;;;4981682;28;20089;-75
2021/09/05 10:21:13;;;;;;;7.63;6.75;;;31.80;51.00;;;;;;4984066;28;20065;-75
2021/09/05 10:23:50;;;;;;;7.47;6.65;;;32.00;48.40;;;;;;4983096;28;20014;-75
2021/09/05 10:26:16;;;;;;;8.20;7.30;;;32.20;49.60;;;;;;4965079;28;20031;-76
2021/09/05 10:28:44;;;;;;;7.07;6.38;;;32.40;48.10;;;;;;4982646;28;20042;-75
2021/09/05 10:31:12;;;;;;;7.28;6.57;;;32.50;47.90;;;;;;4983067;28;20046;-76
2021/09/05 10:33:42;;;;;;;6.65;6.05;;;32.50;47.70;;;;;;4989759;28;20053;-76
2021/09/05 10:36:23;;;;;;;7.22;6.53;;;32.50;45.60;;;;;;4993032;28;20026;-75
2021/09/05 10:38:50;;;;;;;6.85;6.15;;;32.50;46.70;;;;;;5001029;28;20111;-75
2021/09/05 10:41:21;;;;;;;6.53;5.93;;;32.50;44.80;;;;;;4993447;28;20039;-74
2021/09/05 10:43:47;;;;;;;5.90;5.25;;;32.50;45.90;;;;;;4994746;28;20030;-75
2021/09/05 10:46:18;;;;;;;6.35;5.75;;;32.70;45.60;;;;;;4993031;28;20033;-76
2021/09/05 10:48:49;;;;;;;8.68;6.93;;;33.00;43.40;;;;;;4987387;28;20034;-78
2021/09/05 10:51:17;;;;;;;8.43;7.63;;;32.70;43.70;;;;;;4987382;28;20086;-76
2021/09/05 10:53:59;;;;;;;8.48;7.68;;;32.60;43.60;;;;;;4987525;28;20031;-80
2021/09/05 10:56:44;;;;;;;7.70;6.90;;;32.50;44.20;;;;;;4990885;28;20516;-76
2021/09/05 10:59:11;;;;;;;7.07;6.38;;;32.50;45.20;;;;;;4990762;28;20399;-77
2021/09/05 11:01:46;;;;;;;8.63;7.72;;;32.90;43.60;;;;;;4995185;28;20558;-75
2021/09/05 11:04:12;;;;;;;7.75;6.45;;;32.80;43.70;;;;;;4994103;28;20102;-75
2021/09/05 11:06:43;;;;;;;7.07;6.38;;;32.90;43.60;;;;;;4992516;28;20118;-76
2021/09/05 11:09:22;;;;;;;8.70;5.97;;;32.80;43.30;;;;;;4993898;28;20439;-74
2021/09/05 11:12:11;;;;;;;8.80;5.40;;;32.90;43.10;;;;;;4992524;28;20114;-76
2021/09/05 11:14:36;;;;;;;7.32;6.18;;;33.20;44.90;;;;;;4992269;28;20027;-74
2021/09/05 11:17:10;;;;;;;7.25;6.55;;;33.70;43.30;;;;;;4986593;28;20090;-74
2021/09/05 11:19:48;;;;;;;5.65;5.05;;;34.00;43.40;;;;;;4991122;28;20026;-74
2021/09/05 11:22:19;;;;;;;4.38;3.97;;;34.20;43.10;;;;;;4989485;28;20038;-74
2021/09/05 11:24:46;;;;;;;3.58;3.28;;;34.30;41.00;;;;;;4992107;28;20113;-74
2021/09/05 11:27:14;;;;;;;3.25;2.95;;;34.20;37.90;;;;;;4987746;28;20117;-74
2021/09/05 11:29:40;;;;;;;3.55;2.97;;;33.80;39.10;;;;;;4985760;28;20034;-74
2021/09/05 11:32:08;;;;;;;4.28;3.00;;;33.40;40.00;;;;;;4968850;28;20105;-73
2021/09/05 11:34:35;;;;;;;3.40;3.10;;;33.50;39.60;;;;;;4994512;28;20014;-74
2021/09/05 11:37:01;;;;;;;3.75;3.45;;;33.30;39.00;;;;;;4973728;28;20064;-74
2021/09/05 11:39:27;;;;;;;3.65;3.35;;;33.10;39.20;;;;;;4990783;28;20035;-73
2021/09/05 11:41:58;;;;;;;3.95;3.55;;;32.30;39.70;;;;;;4991582;28;20065;-74
2021/09/05 11:44:36;;;;;;;3.40;3.10;;;32.20;42.40;;;;;;4993007;28;20030;-75
2021/09/05 11:47:10;;;;;;;3.95;3.30;;;32.50;41.60;;;;;;4976085;28;20030;-75
2021/09/05 11:49:45;;;;;;;4.13;3.67;;;32.80;41.20;;;;;;4990669;28;20102;-75
2021/09/05 11:52:11;;;;;;;4.05;3.63;;;33.00;40.00;;;;;;4994227;28;20076;-74
2021/09/05 11:54:36;;;;;;;3.85;3.45;;;32.80;40.10;;;;;;4991017;28;20109;-74
2021/09/05 11:57:02;;;;;;;4.63;3.33;;;33.20;41.10;;;;;;4992329;28;20076;-74
2021/09/05 11:59:28;;;;;;;3.67;3.25;;;33.50;39.60;;;;;;4993818;28;20360;-75
2021/09/05 12:01:54;;;;;;;3.45;3.15;;;33.30;38.60;;;;;;4992500;28;20663;-75
2021/09/05 12:04:21;;;;;;;3.60;3.30;;;33.30;39.60;;;;;;4993997;28;20105;-75
2021/09/05 12:06:47;;;;;;;3.33;2.97;;;33.30;38.10;;;;;;4990453;28;20462;-75
2021/09/05 12:09:26;;;;;;;4.00;3.53;;;33.40;38.80;;;;;;4990759;28;20027;-74
2021/09/05 12:11:54;;;;;;;3.30;3.00;;;33.40;39.80;;;;;;4991588;28;20516;-74
2021/09/05 12:14:34;;;;;;;4.70;3.30;;;33.80;40.20;;;;;;4992854;28;20097;-75
2021/09/05 12:17:17;;;;;;;3.60;3.30;;;33.90;37.70;;;;;;4958884;28;20069;-75
2021/09/05 12:20:03;;;;;;;2.92;2.67;;;33.50;38.00;;;;;;4990745;28;20403;-74
2021/09/05 12:22:48;;;;;;;4.82;3.08;;;34.10;39.60;;;;;;4990776;28;20060;-75
2021/09/05 12:25:15;;;;;;;3.20;2.90;;;34.10;37.20;;;;;;4991832;28;20426;-75
2021/09/05 12:28:02;;;;;;;3.30;3.00;;;33.90;37.00;;;;;;4975371;28;20037;-74
2021/09/05 12:30:50;;;;;;;3.20;2.95;;;33.70;37.20;;;;;;4991907;28;20034;-75
2021/09/05 12:33:29;;;;;;;3.30;3.00;;;34.20;38.30;;;;;;4992090;28;20038;-75
2021/09/05 12:36:15;;;;;;;3.78;3.33;;;33.60;37.40;;;;;;4991999;28;20078;-75